»·PEaware :: DAL2447 KSLC-KLAS

DAL2447 :: KSLC-KLAS

FLIGHT INFORMATION

Flight Status: Arrived
Operator:
Delta Air Lines
More flights by this operator :: More flights under this callsign
Pilot: Kevin M. (7)
Aircraft: BOEING 737-800
(B738)
More flights by this aircraft type
Origin: KSLC Salt Lake City Intl
United States
Destination: KLAS McCarran Intl
United States
More flights between these airports :: More routes between these airports
Route: +SEVYR3 MLF MPIRE SITEE3
File this flight plan on PilotEdge
Remarks:
Altitude:
(Current/Filed)
30,000ft
Speed:
(Current/Filed)
470kts
Departed: 11-Oct-18 01:39 PM
Arrived: 11-Oct-18 02:35 PM
Distance/Time
Traveled:
319nm/0:55
Distance/Time
To Go:
Arrived

Flight Plot

Page will automatically refresh every two minutes.

Flight plan parsing failed; only flown route is shown


Map Options




Map Legend


Flown Route
Filed Route
Departure Airport
Arrival Airport
Navaid (VOR, NDB)
Fix

Horizontal Profiles

Position Reports

Time Latitude Longitude Heading Altitude Ground
Speed
11-Oct-18 13:20 40.789205 -111.981598 99 4235ft 0kts
11-Oct-18 13:21 40.789205 -111.981598 99 4235ft 0kts
11-Oct-18 13:22 40.789205 -111.981598 99 4235ft 0kts
11-Oct-18 13:23 40.789205 -111.981598 99 4235ft 0kts
11-Oct-18 13:24 40.789205 -111.981598 99 4235ft 0kts
11-Oct-18 13:25 40.789205 -111.981598 99 4235ft 0kts
11-Oct-18 13:26 40.789205 -111.981598 99 4235ft 0kts
11-Oct-18 13:27 40.789205 -111.981598 99 4235ft 0kts
11-Oct-18 13:28 40.789205 -111.981598 99 4235ft 0kts
11-Oct-18 13:29 40.789205 -111.981598 99 4235ft 0kts
11-Oct-18 13:30 40.789205 -111.981598 99 4235ft 0kts
11-Oct-18 13:31 40.789283 -111.982231 99 4235ft 0kts
11-Oct-18 13:32 40.789105 -111.982490 4 4235ft 0kts
11-Oct-18 13:33 40.789105 -111.982490 4 4235ft 0kts
11-Oct-18 13:34 40.789105 -111.982490 4 4235ft 0kts
11-Oct-18 13:35 40.790552 -111.982854 348 4235ft 13kts
11-Oct-18 13:36 40.791895 -111.977017 145 4235ft 16kts
11-Oct-18 13:37 40.784859 -111.976318 177 4235ft 37kts
11-Oct-18 13:38 40.775232 -111.975337 165 4235ft 21kts
11-Oct-18 13:39 40.774525 -111.974158 75 4235ft 8kts
11-Oct-18 13:40 40.774723 -111.973501 67 4235ft 0kts
11-Oct-18 13:41 40.778372 -111.973549 354 4235ft 65kts
11-Oct-18 13:42 40.818698 -111.982587 324 5390ft 180kts
11-Oct-18 13:43 40.844804 -112.052702 290 6488ft 266kts
11-Oct-18 13:44 40.847156 -112.148698 242 9268ft 283kts
11-Oct-18 13:45 40.805302 -112.241830 225 11418ft 316kts
11-Oct-18 13:46 40.727358 -112.288659 203 13993ft 328kts
11-Oct-18 13:47 40.643603 -112.331736 203 16558ft 338kts
11-Oct-18 13:48 40.557523 -112.375899 204 18896ft 348kts
11-Oct-18 13:49 40.468188 -112.421630 204 20734ft 368kts
11-Oct-18 13:50 40.368493 -112.472680 204 20889ft 429kts
11-Oct-18 13:51 40.259628 -112.528028 204 22643ft 442kts
11-Oct-18 13:52 40.144647 -112.586258 204 24386ft 452kts
11-Oct-18 13:53 40.027868 -112.645179 204 25822ft 460kts
11-Oct-18 13:54 39.911336 -112.703697 204 27101ft 469kts
11-Oct-18 13:55 39.792811 -112.762967 204 28575ft 471kts
11-Oct-18 13:56 39.649387 -112.825525 191 30076ft 474kts
11-Oct-18 13:57 39.519077 -112.844521 190 30066ft 474kts
11-Oct-18 13:58 39.410607 -112.860291 190 30065ft 475kts
11-Oct-18 13:59 39.279726 -112.879489 190 30065ft 476kts
11-Oct-18 14:00 39.150236 -112.898502 190 30061ft 477kts
11-Oct-18 14:01 39.019543 -112.917662 190 30047ft 477kts
11-Oct-18 14:02 38.877726 -112.938250 192 30031ft 458kts
11-Oct-18 14:03 38.775935 -112.953105 192 30029ft 459kts
11-Oct-18 14:04 38.655270 -112.970685 192 30028ft 459kts
11-Oct-18 14:05 38.532208 -112.988556 192 30027ft 459kts
11-Oct-18 14:06 38.410495 -113.006173 191 30027ft 459kts
11-Oct-18 14:07 38.294595 -113.052093 209 30026ft 447kts
11-Oct-18 14:08 38.185219 -113.119844 210 30026ft 447kts
11-Oct-18 14:09 38.075341 -113.187422 209 30038ft 447kts
11-Oct-18 14:10 37.964939 -113.254977 209 30048ft 447kts
11-Oct-18 14:11 37.858552 -113.319815 209 30053ft 447kts
11-Oct-18 14:12 37.748130 -113.386868 209 30052ft 447kts
11-Oct-18 14:13 37.638373 -113.453283 209 30051ft 447kts
11-Oct-18 14:14 37.526981 -113.520458 209 30034ft 447kts
11-Oct-18 14:15 37.419043 -113.585335 210 29985ft 448kts
11-Oct-18 14:16 37.310256 -113.650515 209 29983ft 448kts
11-Oct-18 14:17 37.210038 -113.710208 209 29975ft 426kts
11-Oct-18 14:18 37.108795 -113.770228 209 29992ft 402kts
11-Oct-18 14:19 37.007355 -113.830404 209 29175ft 414kts
11-Oct-18 14:20 36.904658 -113.891099 209 27701ft 408kts
11-Oct-18 14:21 36.813583 -113.944687 208 25507ft 379kts
11-Oct-18 14:22 36.719766 -113.999883 207 23232ft 378kts
11-Oct-18 14:23 36.627599 -114.053964 207 20963ft 371kts
11-Oct-18 14:24 36.545608 -114.140499 235 18502ft 415kts
11-Oct-18 14:25 36.485799 -114.257538 236 16097ft 404kts
11-Oct-18 14:26 36.426825 -114.373294 237 13723ft 391kts
11-Oct-18 14:27 36.360927 -114.502461 237 12006ft 393kts
11-Oct-18 14:28 36.316570 -114.588760 237 11990ft 324kts
11-Oct-18 14:29 36.274455 -114.674897 235 11964ft 276kts
11-Oct-18 14:30 36.234020 -114.750247 236 10532ft 286kts
11-Oct-18 14:31 36.179092 -114.855074 237 7172ft 309kts
11-Oct-18 14:32 36.143295 -114.924923 244 6259ft 269kts
11-Oct-18 14:33 36.147554 -115.003727 278 5990ft 218kts
11-Oct-18 14:34 36.149276 -115.075544 269 4792ft 212kts
11-Oct-18 14:35 36.135708 -115.133304 205 3124ft 178kts
11-Oct-18 14:36 36.094338 -115.155984 204 2154ft 158kts
11-Oct-18 14:37 36.078006 -115.163823 88 2149ft 1kts
11-Oct-18 14:38 36.078010 -115.160950 90 2149ft 36kts
11-Oct-18 14:39 36.077865 -115.148447 95 2149ft 36kts
11-Oct-18 14:40 36.079888 -115.140455 59 2149ft 3kts

Navigation Log

Ident Type
Flight plan parsing failed, navigation log unavailable